Main page
METAR-TAF:

METAR-TAF

Airports :

Göteborg Landvetter Airport

Gothenburg-Landvetter, Sweden

latitude: 57-40N, longitude: 012-18E, elevation: 169 m

Current weather observation

The report was made 23 minutes ago, at 22:20 UTC
Wind 11 kt from the West/Northwest
Temperature 5°C
Humidity 75%
Pressure 1023 hPa
Visibility 10 km or more
no clouds below 1500 m and no cumulonimbus

METAR: ESGG 212220Z 29011KT CAVOK 05/01 Q1023 R21/29//95

Time: 23:43 (22:43 UTC)

Forecast

The report was made 5 hours and 9 minutes ago, at 17:34 UTC
Forecast valid from 21 at 18 UTC to 22 at 18 UTC
Wind 10 kt from the West
Visibility 10 km or more
Scattered clouds at a height of 1000 ft
Temporary
from 21 at 18 UTC to 21 at 20 UTC
Broken clouds at a height of 900 ft
Becoming
from 21 at 21 UTC to 21 at 23 UTC
Wind 12 kt from the Northwest
Becoming
from 22 at 16 UTC to 22 at 18 UTC
Wind 2 kt from variable directions

TAF: ESGG 211734Z 2118/2218 26010KT 9999 SCT010 TEMPO 2118/2120 BKN009 BECMG 2121/2123 32012KT BECMG 2216/2218 VRB02KT

Weather observations and forecasts of more than 4000 airports (METAR and TAF reports).

The available stations are represented by yellow and red dots on the map.

Hover mouse over dot to see the name of the station.

Then click to see weather observations and forecasts.

To change the map : click on the green buttons with a black cross to zoom in, on the green button with a dash to zoom out, or on the green arrows for adjacent maps.


METAR-TAF: